| time (UTC) | temp C | wind direction | speed KPH | gust KPH | rain 1hr cm | rain 24hr cm | rain mn cm | humidity % | barometer mb |
| 20260505194643 | 22 | 71 | 4.8 | 16.1 | 0.00 | 0.00 | 0.00 | 56 | 1035.8 |
| 20260505194139 | 22 | 217 | 3.2 | 17.7 | 0.00 | 0.00 | 0.00 | 55 | 1035.7 |
| 20260505193636 | 22 | 296 | 6.4 | 14.5 | 0.00 | 0.00 | 0.00 | 56 | 1035.8 |
| 20260505193133 | 23 | 216 | 8.0 | 11.3 | 0.00 | 0.00 | 0.00 | 54 | 1035.7 |
| 20260505192632 | 23 | 229 | 4.8 | 11.3 | 0.00 | 0.00 | 0.00 | 54 | 1035.8 |
| 20260505192129 | 23 | 257 | 4.8 | 6.4 | 0.00 | 0.00 | 0.00 | 54 | 1035.9 |
| 20260505191627 | 24 | 194 | 6.4 | 8.0 | 0.00 | 0.00 | 0.00 | 52 | 1035.9 |
| 20260505191125 | 23 | 208 | 4.8 | 8.0 | 0.00 | 0.00 | 0.00 | 55 | 1036.0 |
| 20260505190620 | 23 | 230 | 8.0 | 9.7 | 0.00 | 0.00 | 0.00 | 55 | 1036.2 |
| 20260505190115 | 23 | 244 | 3.2 | 12.9 | 0.00 | 0.00 | 0.00 | 56 | 1036.3 |
| 20260505185613 | 23 | 293 | 3.2 | 9.7 | 0.00 | 0.00 | 0.00 | 54 | 1036.2 |
| 20260505185109 | 23 | 257 | 3.2 | 9.7 | 0.00 | 0.00 | 0.00 | 54 | 1036.3 |
| 20260505184605 | 24 | 257 | 6.4 | 6.4 | 0.00 | 0.00 | 0.00 | 52 | 1036.1 |
| 20260505184102 | 23 | 249 | 4.8 | 6.4 | 0.00 | 0.00 | 0.00 | 53 | 1036.3 |
| 20260505183559 | 23 | 249 | 4.8 | 8.0 | 0.00 | 0.00 | 0.00 | 55 | 1036.2 |
| 20260505183057 | 23 | 236 | 4.8 | 8.0 | 0.00 | 0.00 | 0.00 | 54 | 1036.1 |
| 20260505182552 | 23 | 240 | 4.8 | 9.7 | 0.00 | 0.00 | 0.00 | 53 | 1036.1 |
| 20260505182049 | 23 | 289 | 6.4 | 9.7 | 0.00 | 0.00 | 0.00 | 53 | 1036.3 |
| 20260505181546 | 24 | 209 | 1.6 | 3.2 | 0.00 | 0.00 | 0.00 | 54 | 1036.3 |
| 20260505181043 | 23 | 269 | 6.4 | 8.0 | 0.00 | 0.00 | 0.00 | 54 | 1036.3 |
| 20260505180539 | 24 | 253 | 8.0 | 8.0 | 0.00 | 0.00 | 0.00 | 52 | 1036.4 |
| 20260505180037 | 23 | 311 | 9.7 | 9.7 | 0.00 | 0.00 | 0.00 | 54 | 1036.2 |
| 20260505175537 | 23 | 217 | 4.8 | 11.3 | 0.00 | 0.00 | 0.00 | 54 | 1036.2 |
| 20260505175034 | 23 | 156 | 3.2 | 6.4 | 0.00 | 0.00 | 0.00 | 55 | 1036.4 |
| 20260505174531 | 23 | 222 | 8.0 | 12.9 | 0.00 | 0.00 | 0.00 | 55 | 1036.5 |
| 20260505174027 | 23 | 173 | 3.2 | 11.3 | 0.00 | 0.00 | 0.00 | 54 | 1036.8 |
| 20260505173524 | 23 | 229 | 6.4 | 12.9 | 0.00 | 0.00 | 0.00 | 55 | 1036.6 |
| 20260505173021 | 23 | 250 | 8.0 | 11.3 | 0.00 | 0.00 | 0.00 | 55 | 1036.7 |
| 20260505172519 | 23 | 200 | 9.7 | 9.7 | 0.00 | 0.00 | 0.00 | 54 | 1036.7 |
| 20260505172015 | 23 | 308 | 4.8 | 6.4 | 0.00 | 0.00 | 0.00 | 55 | 1036.6 |
| 20260505171510 | 23 | 251 | 3.2 | 11.3 | 0.00 | 0.00 | 0.00 | 56 | 1036.5 |
| 20260505171007 | 23 | 214 | 8.0 | 8.0 | 0.00 | 0.00 | 0.00 | 53 | 1036.6 |
| 20260505170504 | 23 | 284 | 3.2 | 6.4 | 0.00 | 0.00 | 0.00 | 55 | 1036.7 |
| 20260505165959 | 23 | 211 | 8.0 | 8.0 | 0.00 | 0.00 | 0.00 | 55 | 1036.8 |
| 20260505165450 | 23 | 224 | 6.4 | 8.0 | 0.00 | 0.00 | 0.00 | 55 | 1036.8 |
| 20260505164945 | 23 | 200 | 3.2 | 8.0 | 0.00 | 0.00 | 0.00 | 54 | 1036.8 |
| 20260505164442 | 22 | 237 | 4.8 | 6.4 | 0.00 | 0.00 | 0.00 | 55 | 1037.0 |
| 20260505163940 | 23 | 252 | 6.4 | 8.0 | 0.00 | 0.00 | 0.00 | 58 | 1036.9 |
| 20260505163438 | 22 | 230 | 3.2 | 9.7 | 0.00 | 0.00 | 0.00 | 59 | 1037.2 |
| 20260505162937 | 22 | 245 | 9.7 | 14.5 | 0.00 | 0.00 | 0.00 | 57 | 1037.1 |
| 20260505162433 | 22 | 282 | 6.4 | 8.0 | 0.00 | 0.00 | 0.00 | 57 | 1037.2 |
| 20260505161930 | 22 | 258 | 3.2 | 4.8 | 0.00 | 0.00 | 0.00 | 58 | 1037.4 |
| 20260505161426 | 23 | 253 | 3.2 | 6.4 | 0.00 | 0.00 | 0.00 | 55 | 1037.4 |
| 20260505160924 | 22 | 309 | 4.8 | 8.0 | 0.00 | 0.00 | 0.00 | 55 | 1037.5 |
| 20260505160422 | 23 | 250 | 1.6 | 3.2 | 0.00 | 0.00 | 0.00 | 57 | 1037.5 |
| 20260505152858 | 21 | 251 | 9.7 | 9.7 | 0.00 | 0.00 | 0.00 | 56 | 1037.8 |
| 20260505152355 | 22 | 217 | 11.3 | 14.5 | 0.00 | 0.00 | 0.00 | 56 | 1037.9 |
| 20260505151855 | 21 | 246 | 6.4 | 9.7 | 0.00 | 0.00 | 0.00 | 56 | 1037.8 |
| 20260505151352 | 21 | 311 | 4.8 | 8.0 | 0.00 | 0.00 | 0.00 | 57 | 1037.9 |
| 20260505150849 | 21 | 302 | 4.8 | 6.4 | 0.00 | 0.00 | 0.00 | 57 | 1038.1 |
| 20260505150347 | 22 | 244 | 6.4 | 6.4 | 0.00 | 0.00 | 0.00 | 57 | 1037.9 |
| 20260505140316 | 19 | 217 | 6.4 | 6.4 | 0.00 | 0.00 | 0.00 | 69 | 1037.7 |
| 20260505130240 | 15 | 200 | 0.0 | 3.2 | 0.00 | 0.00 | 0.00 | 80 | 1037.4 |
| 20260505124731 | 14 | 302 | 3.2 | 4.8 | 0.00 | 0.00 | 0.00 | 79 | 1037.7 |
| 20260505124228 | 14 | 237 | 1.6 | 4.8 | 0.00 | 0.00 | 0.00 | 79 | 1038.0 |
| 20260505123723 | 14 | 259 | 6.4 | 6.4 | 0.00 | 0.00 | 0.00 | 79 | 1037.9 |
| 20260505123220 | 14 | 319 | 1.6 | 3.2 | 0.00 | 0.00 | 0.00 | 81 | 1037.8 |
| 20260505122716 | 14 | 340 | 3.2 | 6.4 | 0.00 | 0.00 | 0.00 | 80 | 1038.0 |
| 20260505122214 | 14 | 295 | 6.4 | 6.4 | 0.00 | 0.00 | 0.00 | 80 | 1038.0 |
| 20260505121710 | 14 | 319 | 3.2 | 4.8 | 0.00 | 0.00 | 0.00 | 81 | 1038.1 |
| 20260505121207 | 13 | 265 | 3.2 | 8.0 | 0.00 | 0.00 | 0.00 | 81 | 1038.1 |
| 20260505120703 | 13 | 309 | 4.8 | 6.4 | 0.00 | 0.00 | 0.00 | 82 | 1038.1 |
| 20260505120159 | 13 | 206 | 3.2 | 4.8 | 0.00 | 0.00 | 0.00 | 82 | 1038.1 |
| 20260505115652 | 13 | 234 | 4.8 | 6.4 | 0.00 | 0.00 | 0.00 | 82 | 1038.1 |
| 20260505115151 | 13 | 265 | 6.4 | 8.0 | 0.00 | 0.00 | 0.00 | 82 | 1038.2 |
| 20260505114648 | 13 | 235 | 3.2 | 4.8 | 0.00 | 0.00 | 0.00 | 82 | 1038.0 |
| 20260505114144 | 13 | 264 | 3.2 | 4.8 | 0.00 | 0.00 | 0.00 | 84 | 1038.1 |
| 20260505113640 | 13 | 306 | 6.4 | 6.4 | 0.00 | 0.00 | 0.00 | 84 | 1038.1 |
| 20260505113137 | 13 | 292 | 3.2 | 4.8 | 0.00 | 0.00 | 0.00 | 86 | 1038.0 |
| 20260505112633 | 12 | 260 | 3.2 | 6.4 | 0.00 | 0.00 | 0.00 | 87 | 1038.2 |
| 20260505112132 | 12 | 297 | 3.2 | 6.4 | 0.00 | 0.00 | 0.00 | 88 | 1037.9 |
| 20260505111626 | 12 | 297 | 4.8 | 6.4 | 0.00 | 0.00 | 0.00 | 89 | 1037.9 |
| 20260505111122 | 11 | 287 | 3.2 | 6.4 | 0.00 | 0.00 | 0.00 | 90 | 1037.7 |
| 20260505110618 | 11 | 260 | 3.2 | 6.4 | 0.00 | 0.00 | 0.00 | 90 | 1037.7 |
| 20260505110115 | 12 | 290 | 3.2 | 4.8 | 0.00 | 0.00 | 0.00 | 90 | 1037.8 |
| 20260505102051 | 10 | 254 | 6.4 | 6.4 | 0.00 | 0.00 | 0.00 | 95 | 1037.4 |
| 20260505101549 | 10 | 300 | 6.4 | 6.4 | 0.00 | 0.00 | 0.00 | 95 | 1037.1 |
| 20260505101044 | 10 | 292 | 4.8 | 6.4 | 0.00 | 0.00 | 0.00 | 95 | 1037.3 |
| 20260505100541 | 10 | 311 | 6.4 | 6.4 | 0.00 | 0.00 | 0.00 | 95 | 1037.0 |
| 20260505100039 | 10 | 330 | 6.4 | 8.0 | 0.00 | 0.00 | 0.00 | 95 | 1037.0 |
| 20260505095535 | 10 | 307 | 4.8 | 4.8 | 0.00 | 0.00 | 0.00 | 95 | 1037.0 |
| 20260505095032 | 10 | 285 | 4.8 | 6.4 | 0.00 | 0.00 | 0.00 | 95 | 1037.1 |
| 20260505094528 | 10 | 320 | 4.8 | 6.4 | 0.00 | 0.00 | 0.00 | 95 | 1037.1 |
| 20260505094025 | 10 | 329 | 3.2 | 4.8 | 0.00 | 0.00 | 0.00 | 95 | 1037.0 |
| 20260505093521 | 10 | 306 | 3.2 | 6.4 | 0.00 | 0.00 | 0.00 | 95 | 1036.9 |
| 20260505093019 | 10 | 291 | 4.8 | 6.4 | 0.00 | 0.00 | 0.00 | 94 | 1037.0 |
| 20260505092516 | 10 | 310 | 6.4 | 8.0 | 0.00 | 0.00 | 0.00 | 94 | 1037.0 |
| 20260505092014 | 10 | 307 | 4.8 | 8.0 | 0.00 | 0.00 | 0.00 | 94 | 1036.8 |
| 20260505091511 | 10 | 300 | 6.4 | 8.0 | 0.00 | 0.00 | 0.00 | 94 | 1037.0 |
| 20260505091009 | 10 | 315 | 6.4 | 6.4 | 0.00 | 0.00 | 0.00 | 94 | 1036.9 |
| 20260505090507 | 10 | 343 | 4.8 | 6.4 | 0.00 | 0.00 | 0.00 | 93 | 1036.8 |
| 20260505090004 | 10 | 318 | 6.4 | 6.4 | 0.00 | 0.00 | 0.00 | 93 | 1036.9 |
| 20260505085502 | 10 | 295 | 6.4 | 8.0 | 0.00 | 0.00 | 0.00 | 94 | 1036.9 |
| 20260505085000 | 10 | 298 | 3.2 | 3.2 | 0.00 | 0.00 | 0.00 | 94 | 1037.0 |
| 20260505084458 | 10 | 323 | 3.2 | 3.2 | 0.00 | 0.00 | 0.00 | 94 | 1037.0 |
| 20260505083955 | 10 | 328 | 4.8 | 4.8 | 0.00 | 0.00 | 0.00 | 94 | 1037.2 |
| 20260505083452 | 10 | 327 | 4.8 | 4.8 | 0.00 | 0.00 | 0.00 | 94 | 1037.0 |
| 20260505082948 | 10 | 341 | 4.8 | 4.8 | 0.00 | 0.00 | 0.00 | 94 | 1037.1 |
| 20260505082444 | 10 | 355 | 1.6 | 3.2 | 0.00 | 0.00 | 0.00 | 93 | 1037.2 |
| 20260505081942 | 10 | 298 | 1.6 | 3.2 | 0.00 | 0.00 | 0.00 | 93 | 1037.2 |
| 20260505081438 | 10 | 321 | 3.2 | 4.8 | 0.00 | 0.00 | 0.00 | 93 | 1037.1 |
| 20260505080935 | 10 | 345 | 3.2 | 3.2 | 0.00 | 0.00 | 0.00 | 92 | 1037.1 |
| 20260505080431 | 10 | 341 | 4.8 | 4.8 | 0.00 | 0.00 | 0.00 | 92 | 1037.0 |
| 20260505075926 | 10 | 348 | 3.2 | 3.2 | 0.00 | 0.00 | 0.00 | 92 | 1037.0 |
| 20260505075424 | 10 | 307 | 3.2 | 3.2 | 0.00 | 0.00 | 0.00 | 91 | 1037.0 |
| 20260505074921 | 10 | 317 | 3.2 | 3.2 | 0.00 | 0.00 | 0.00 | 91 | 1037.0 |
| 20260505074418 | 10 | 308 | 4.8 | 6.4 | 0.00 | 0.00 | 0.00 | 90 | 1037.0 |
| 20260505073915 | 10 | 274 | 3.2 | 4.8 | 0.00 | 0.00 | 0.00 | 90 | 1037.1 |
| 20260505073413 | 10 | 301 | 4.8 | 4.8 | 0.00 | 0.00 | 0.00 | 89 | 1037.1 |
| 20260505072910 | 10 | 301 | 4.8 | 4.8 | 0.00 | 0.00 | 0.00 | 89 | 1036.9 |
| 20260505072406 | 10 | 256 | 4.8 | 4.8 | 0.00 | 0.00 | 0.00 | 89 | 1037.0 |
| 20260505071903 | 10 | 268 | 0.0 | 3.2 | 0.00 | 0.00 | 0.00 | 88 | 1037.1 |
| 20260505071358 | 10 | 295 | 4.8 | 4.8 | 0.00 | 0.00 | 0.00 | 88 | 1037.1 |
| 20260505070857 | 10 | 316 | 3.2 | 3.2 | 0.00 | 0.00 | 0.00 | 89 | 1037.0 |
| 20260505070353 | 10 | 327 | 0.0 | 0.0 | 0.00 | 0.00 | 0.00 | 88 | 1037.1 |
| 20260505065848 | 10 | 294 | 3.2 | 3.2 | 0.00 | 0.00 | 0.00 | 88 | 1037.2 |
| 20260505065345 | 10 | 308 | 3.2 | 4.8 | 0.00 | 0.00 | 0.00 | 88 | 1037.2 |
| 20260505064842 | 10 | 318 | 3.2 | 3.2 | 0.00 | 0.00 | 0.00 | 87 | 1037.3 |
| 20260505064339 | 10 | 300 | 0.0 | 4.8 | 0.00 | 0.00 | 0.00 | 87 | 1037.4 |
| 20260505063837 | 10 | 305 | 4.8 | 4.8 | 0.00 | 0.00 | 0.00 | 87 | 1037.2 |
| 20260505063327 | 10 | 267 | 3.2 | 3.2 | 0.00 | 0.00 | 0.00 | 87 | 1037.3 |
| 20260505062824 | 10 | 314 | 3.2 | 4.8 | 0.00 | 0.00 | 0.00 | 86 | 1037.2 |
| 20260505062321 | 10 | 284 | 3.2 | 4.8 | 0.00 | 0.00 | 0.00 | 86 | 1037.3 |
| 20260505061818 | 10 | 321 | 1.6 | 3.2 | 0.00 | 0.00 | 0.00 | 86 | 1037.3 |
| 20260505061316 | 10 | 265 | 3.2 | 3.2 | 0.00 | 0.00 | 0.00 | 86 | 1037.4 |
| 20260505060813 | 11 | 279 | 3.2 | 3.2 | 0.00 | 0.00 | 0.00 | 85 | 1037.3 |
| 20260505060310 | 10 | 321 | 3.2 | 3.2 | 0.00 | 0.00 | 0.00 | 85 | 1037.4 |
| 20260505055805 | 10 | 248 | 3.2 | 4.8 | 0.00 | 0.00 | 0.00 | 85 | 1037.4 |
| 20260505055303 | 10 | 284 | 3.2 | 3.2 | 0.00 | 0.00 | 0.00 | 84 | 1037.5 |
| 20260505054759 | 11 | 281 | 3.2 | 3.2 | 0.00 | 0.00 | 0.00 | 83 | 1037.6 |
| 20260505054257 | 11 | 281 | 3.2 | 3.2 | 0.00 | 0.00 | 0.00 | 83 | 1037.7 |
| 20260505053755 | 11 | 310 | 3.2 | 3.2 | 0.00 | 0.00 | 0.00 | 81 | 1037.7 |
| 20260505053251 | 11 | 310 | 3.2 | 3.2 | 0.00 | 0.00 | 0.00 | 81 | 1037.7 |
| 20260505052748 | 11 | 310 | 3.2 | 3.2 | 0.00 | 0.00 | 0.00 | 81 | 1037.7 |
| 20260505052245 | 11 | 308 | 4.8 | 4.8 | 0.00 | 0.00 | 0.00 | 81 | 1037.6 |
| 20260505051743 | 10 | 333 | 6.4 | 6.4 | 0.00 | 0.00 | 0.00 | 82 | 1037.6 |
| 20260505051240 | 10 | 314 | 0.0 | 3.2 | 0.00 | 0.00 | 0.00 | 82 | 1037.7 |
| 20260505050738 | 10 | 314 | 0.0 | 3.2 | 0.00 | 0.00 | 0.00 | 82 | 1037.7 |
| 20260505050236 | 11 | 3 | 3.2 | 3.2 | 0.00 | 0.00 | 0.00 | 79 | 1037.8 |
| 20260505041706 | 11 | 348 | 1.6 | 3.2 | 0.00 | 0.00 | 0.00 | 75 | 1038.1 |
| 20260505041203 | 11 | 331 | 3.2 | 4.8 | 0.00 | 0.00 | 0.00 | 76 | 1038.0 |
| 20260505040700 | 11 | 319 | 3.2 | 4.8 | 0.00 | 0.00 | 0.00 | 75 | 1038.0 |
| 20260505040157 | 11 | 296 | 3.2 | 4.8 | 0.00 | 0.00 | 0.00 | 75 | 1038.0 |
| 20260505035654 | 11 | 320 | 0.0 | 3.2 | 0.00 | 0.00 | 0.00 | 75 | 1037.9 |
| 20260505035150 | 11 | 304 | 4.8 | 4.8 | 0.00 | 0.00 | 0.00 | 76 | 1038.0 |
| 20260505034647 | 11 | 313 | 3.2 | 6.4 | 0.00 | 0.00 | 0.00 | 75 | 1038.1 |
| 20260505034144 | 12 | 311 | 3.2 | 3.2 | 0.00 | 0.00 | 0.00 | 75 | 1038.0 |
| 20260505033640 | 12 | 303 | 3.2 | 3.2 | 0.00 | 0.00 | 0.00 | 74 | 1038.0 |
| 20260505033139 | 12 | 335 | 3.2 | 4.8 | 0.00 | 0.00 | 0.00 | 74 | 1038.1 |
| 20260505032637 | 12 | 314 | 3.2 | 6.4 | 0.00 | 0.00 | 0.00 | 73 | 1037.9 |
| 20260505032132 | 12 | 293 | 4.8 | 4.8 | 0.00 | 0.00 | 0.00 | 74 | 1038.0 |
| 20260505031630 | 11 | 345 | 3.2 | 4.8 | 0.00 | 0.00 | 0.00 | 75 | 1038.0 |
| 20260505031125 | 11 | 297 | 3.2 | 4.8 | 0.00 | 0.00 | 0.00 | 75 | 1037.8 |
| 20260505030623 | 11 | 313 | 3.2 | 3.2 | 0.00 | 0.00 | 0.00 | 76 | 1038.0 |
| 20260505030119 | 11 | 292 | 3.2 | 4.8 | 0.00 | 0.00 | 0.00 | 75 | 1038.0 |
| 20260505025615 | 11 | 274 | 3.2 | 4.8 | 0.00 | 0.00 | 0.00 | 76 | 1037.8 |
| 20260505025114 | 11 | 307 | 3.2 | 4.8 | 0.00 | 0.00 | 0.00 | 76 | 1038.0 |
| 20260505024611 | 11 | 301 | 3.2 | 3.2 | 0.00 | 0.00 | 0.00 | 76 | 1038.0 |
| 20260505024108 | 11 | 308 | 6.4 | 6.4 | 0.00 | 0.00 | 0.00 | 77 | 1037.9 |
| 20260505023605 | 11 | 272 | 0.0 | 4.8 | 0.00 | 0.00 | 0.00 | 77 | 1038.0 |
| 20260505023102 | 11 | 301 | 0.0 | 3.2 | 0.00 | 0.00 | 0.00 | 76 | 1038.1 |
| 20260505022600 | 11 | 236 | 1.6 | 4.8 | 0.00 | 0.00 | 0.00 | 77 | 1038.0 |
| 20260505022056 | 11 | 265 | 4.8 | 4.8 | 0.00 | 0.00 | 0.00 | 76 | 1038.0 |
| 20260505021554 | 11 | 312 | 3.2 | 4.8 | 0.00 | 0.00 | 0.00 | 76 | 1038.2 |
| 20260505021050 | 11 | 352 | 1.6 | 4.8 | 0.00 | 0.00 | 0.00 | 76 | 1038.0 |
| 20260505020550 | 11 | 317 | 3.2 | 6.4 | 0.00 | 0.00 | 0.00 | 76 | 1038.2 |
| 20260505020047 | 11 | 254 | 4.8 | 4.8 | 0.00 | 0.00 | 0.00 | 77 | 1038.1 |
| 20260505015544 | 11 | 332 | 4.8 | 4.8 | 0.00 | 0.00 | 0.00 | 76 | 1038.1 |
| 20260505015041 | 11 | 310 | 4.8 | 4.8 | 0.00 | 0.00 | 0.00 | 76 | 1038.1 |
| 20260505014537 | 11 | 300 | 4.8 | 6.4 | 0.00 | 0.00 | 0.00 | 75 | 1037.9 |
| 20260505014035 | 11 | 295 | 4.8 | 4.8 | 0.00 | 0.00 | 0.00 | 76 | 1037.8 |
| 20260505013532 | 11 | 316 | 6.4 | 6.4 | 0.00 | 0.00 | 0.00 | 76 | 1037.8 |
| 20260505013030 | 11 | 322 | 3.2 | 4.8 | 0.00 | 0.00 | 0.00 | 76 | 1038.1 |
| 20260505012528 | 11 | 322 | 3.2 | 4.8 | 0.00 | 0.00 | 0.00 | 76 | 1037.7 |
| 20260505012025 | 12 | 271 | 0.0 | 6.4 | 0.00 | 0.00 | 0.00 | 75 | 1037.8 |
| 20260505011520 | 12 | 286 | 4.8 | 4.8 | 0.00 | 0.00 | 0.00 | 74 | 1037.8 |
| 20260505011017 | 12 | 300 | 3.2 | 6.4 | 0.00 | 0.00 | 0.00 | 74 | 1037.8 |
| 20260505010512 | 12 | 11 | 3.2 | 3.2 | 0.00 | 0.00 | 0.00 | 73 | 1037.7 |
| 20260505010009 | 12 | 327 | 3.2 | 6.4 | 0.00 | 0.00 | 0.00 | 72 | 1037.5 |
| 20260505005505 | 12 | 352 | 3.2 | 6.4 | 0.00 | 0.00 | 0.00 | 72 | 1037.5 |
| 20260505005004 | 12 | 308 | 3.2 | 6.4 | 0.00 | 0.00 | 0.00 | 71 | 1037.4 |
| 20260505004500 | 12 | 285 | 4.8 | 6.4 | 0.00 | 0.00 | 0.00 | 70 | 1037.5 |
| 20260505003956 | 12 | 248 | 4.8 | 6.4 | 0.00 | 0.00 | 0.00 | 69 | 1037.4 |
| 20260505003454 | 12 | 312 | 4.8 | 4.8 | 0.00 | 0.00 | 0.00 | 68 | 1037.3 |
| 20260505002950 | 12 | 273 | 4.8 | 8.0 | 0.00 | 0.00 | 0.00 | 68 | 1037.2 |
| 20260505002446 | 13 | 304 | 4.8 | 8.0 | 0.00 | 0.00 | 0.00 | 67 | 1037.2 |
| 20260505001945 | 13 | 265 | 6.4 | 6.4 | 0.00 | 0.00 | 0.00 | 66 | 1037.1 |
| 20260505001442 | 13 | 320 | 12.9 | 14.5 | 0.00 | 0.00 | 0.00 | 66 | 1036.9 |
| 20260505000939 | 13 | 277 | 6.4 | 6.4 | 0.00 | 0.00 | 0.00 | 65 | 1036.8 |
| 20260505000437 | 13 | 256 | 3.2 | 8.0 | 0.00 | 0.00 | 0.00 | 64 | 1036.7 |
| 20260504235933 | 13 | 307 | 3.2 | 9.7 | 0.00 | 0.00 | 0.00 | 63 | 1036.6 |
| 20260504235431 | 13 | 320 | 4.8 | 6.4 | 0.00 | 0.00 | 0.00 | 63 | 1036.7 |
| 20260504234926 | 13 | 317 | 4.8 | 8.0 | 0.00 | 0.00 | 0.00 | 62 | 1036.6 |
| 20260504234424 | 14 | 252 | 6.4 | 9.7 | 0.00 | 0.00 | 0.00 | 61 | 1036.3 |
| 20260504233920 | 14 | 311 | 4.8 | 9.7 | 0.00 | 0.00 | 0.00 | 60 | 1036.5 |
| 20260504233417 | 14 | 250 | 6.4 | 12.9 | 0.00 | 0.00 | 0.00 | 60 | 1036.4 |
| 20260504232914 | 15 | 202 | 4.8 | 9.7 | 0.00 | 0.00 | 0.00 | 61 | 1036.4 |
| 20260504232411 | 15 | 262 | 8.0 | 8.0 | 0.00 | 0.00 | 0.00 | 61 | 1036.4 |
| 20260504231908 | 15 | 238 | 3.2 | 4.8 | 0.00 | 0.00 | 0.00 | 60 | 1036.3 |
| 20260504231404 | 15 | 273 | 4.8 | 4.8 | 0.00 | 0.00 | 0.00 | 60 | 1036.3 |
| 20260504230900 | 15 | 213 | 9.7 | 9.7 | 0.00 | 0.00 | 0.00 | 59 | 1036.3 |
| 20260504230357 | 15 | 219 | 3.2 | 9.7 | 0.00 | 0.00 | 0.00 | 58 | 1036.2 |
| 20260504225856 | 15 | 211 | 9.7 | 11.3 | 0.00 | 0.00 | 0.00 | 57 | 1036.2 |
| 20260504225352 | 15 | 231 | 6.4 | 6.4 | 0.00 | 0.00 | 0.00 | 57 | 1036.2 |
| 20260504224850 | 16 | 173 | 3.2 | 3.2 | 0.00 | 0.00 | 0.00 | 57 | 1036.1 |
| 20260504224346 | 16 | 229 | 3.2 | 6.4 | 0.00 | 0.00 | 0.00 | 57 | 1036.1 |
| 20260504223843 | 16 | 227 | 4.8 | 6.4 | 0.00 | 0.00 | 0.00 | 56 | 1036.1 |
| 20260504223338 | 16 | 263 | 3.2 | 4.8 | 0.00 | 0.00 | 0.00 | 54 | 1036.3 |
| 20260504222835 | 16 | 314 | 3.2 | 4.8 | 0.00 | 0.00 | 0.00 | 54 | 1036.1 |
| 20260504222332 | 16 | 207 | 3.2 | 9.7 | 0.00 | 0.00 | 0.00 | 53 | 1036.2 |
| 20260504221831 | 16 | 251 | 11.3 | 11.3 | 0.00 | 0.00 | 0.00 | 52 | 1036.2 |
| 20260504221327 | 17 | 214 | 9.7 | 9.7 | 0.00 | 0.00 | 0.00 | 51 | 1036.2 |
| 20260504220824 | 17 | 334 | 1.6 | 8.0 | 0.00 | 0.00 | 0.00 | 52 | 1036.0 |
| 20260504220321 | 17 | 308 | 6.4 | 9.7 | 0.00 | 0.00 | 0.00 | 50 | 1036.1 |
| 20260504215818 | 17 | 238 | 6.4 | 8.0 | 0.00 | 0.00 | 0.00 | 50 | 1036.3 |
| 20260504215314 | 17 | 248 | 9.7 | 24.1 | 0.00 | 0.00 | 0.00 | 49 | 1036.1 |
| 20260504214810 | 17 | 204 | 9.7 | 12.9 | 0.00 | 0.00 | 0.00 | 48 | 1036.4 |
| 20260504214308 | 17 | 338 | 1.6 | 11.3 | 0.00 | 0.00 | 0.00 | 49 | 1036.1 |
| 20260504213804 | 17 | 302 | 9.7 | 9.7 | 0.00 | 0.00 | 0.00 | 49 | 1036.1 |
| 20260504213300 | 17 | 222 | 3.2 | 6.4 | 0.00 | 0.00 | 0.00 | 50 | 1036.1 |
| 20260504212758 | 17 | 270 | 9.7 | 9.7 | 0.00 | 0.00 | 0.00 | 50 | 1036.2 |
| 20260504212254 | 17 | 206 | 8.0 | 8.0 | 0.00 | 0.00 | 0.00 | 50 | 1036.2 |
| 20260504211751 | 17 | 298 | 4.8 | 6.4 | 0.00 | 0.00 | 0.00 | 51 | 1036.1 |
| 20260504211247 | 17 | 273 | 3.2 | 9.7 | 0.00 | 0.00 | 0.00 | 50 | 1036.1 |
| 20260504210745 | 17 | 253 | 8.0 | 11.3 | 0.00 | 0.00 | 0.00 | 49 | 1036.4 |
| 20260504210242 | 17 | 218 | 4.8 | 17.7 | 0.00 | 0.00 | 0.00 | 49 | 1036.1 |
| 20260504205739 | 17 | 277 | 3.2 | 8.0 | 0.00 | 0.00 | 0.00 | 49 | 1036.2 |
| 20260504205237 | 18 | 243 | 4.8 | 9.7 | 0.00 | 0.00 | 0.00 | 49 | 1035.9 |
| 20260504204735 | 18 | 259 | 12.9 | 14.5 | 0.00 | 0.00 | 0.00 | 47 | 1036.0 |
| 20260504204233 | 18 | 219 | 12.9 | 14.5 | 0.00 | 0.00 | 0.00 | 46 | 1036.0 |
| 20260504203732 | 18 | 242 | 11.3 | 11.3 | 0.00 | 0.00 | 0.00 | 46 | 1036.1 |
| 20260504203230 | 18 | 261 | 3.2 | 16.1 | 0.00 | 0.00 | 0.00 | 46 | 1035.9 |
| 20260504202730 | 18 | 251 | 8.0 | 17.7 | 0.00 | 0.00 | 0.00 | 44 | 1035.8 |
| 20260504202227 | 19 | 128 | 1.6 | 9.7 | 0.00 | 0.00 | 0.00 | 41 | 1035.9 |
| 20260504201724 | 20 | 226 | 1.6 | 6.4 | 0.00 | 0.00 | 0.00 | 40 | 1036.1 |
| 20260504201221 | 19 | 305 | 8.0 | 17.7 | 0.00 | 0.00 | 0.00 | 41 | 1036.0 |
| 20260504200719 | 19 | 225 | 8.0 | 9.7 | 0.00 | 0.00 | 0.00 | 40 | 1036.0 |
| 20260504200214 | 20 | 214 | 6.4 | 16.1 | 0.00 | 0.00 | 0.00 | 40 | 1036.0 |
| 20260504195711 | 20 | 299 | 9.7 | 9.7 | 0.00 | 0.00 | 0.00 | 38 | 1036.0 |
| 20260504195206 | 20 | 239 | 6.4 | 11.3 | 0.00 | 0.00 | 0.00 | 39 | 1036.0 |